Jalapa, Guatemala
Current Conditions -  °F | °C
As of 8:50 AM on Wednesday 26 Nov 2014 (Local Time) from MSSS Reporting Station
Clear Clear  
Wind Chill: 77°   Ceiling: Unl
Heat Index: 79°   Visibility: 6mi
Dew Point: 70°   Wind: 16mph
Humidity: 78%   Direction: 360°N
Pressure: 30.03"   Gusts: NA
Location:  14.39°N, 89.59°W
Report Text: MSSS 261450Z 36014KT CAVOK 25/21 Q1017 A3005
Loading
Personal Weather Stations






























Interactive Weather Map New forecast layout! Learn more

10-Day Weather Forecast

Advertisements
Track Severe Weather on mobile